sensor_id;sensor_type;location;lat;lon;timestamp;temperature;humidity
12726;DHT22;6427;49.754;6.106;2023-08-17T00:00:58;19.00;99.90
12726;DHT22;6427;49.754;6.106;2023-08-17T00:03:26;18.90;99.90
12726;DHT22;6427;49.754;6.106;2023-08-17T00:05:54;18.90;99.90
12726;DHT22;6427;49.754;6.106;2023-08-17T00:08:22;18.90;99.90
12726;DHT22;6427;49.754;6.106;2023-08-17T00:10:50;19.10;99.90
12726;DHT22;6427;49.754;6.106;2023-08-17T00:13:18;19.00;99.90
12726;DHT22;6427;49.754;6.106;2023-08-17T00:15:46;19.00;99.90
12726;DHT22;6427;49.754;6.106;2023-08-17T00:18:14;19.00;99.90
12726;DHT22;6427;49.754;6.106;2023-08-17T00:20:42;18.90;99.90
12726;DHT22;6427;49.754;6.106;2023-08-17T00:23:10;18.90;99.90
12726;DHT22;6427;49.754;6.106;2023-08-17T00:25:38;18.90;99.90
12726;DHT22;6427;49.754;6.106;2023-08-17T00:28:06;18.90;99.90
12726;DHT22;6427;49.754;6.106;2023-08-17T00:30:34;18.80;99.90
12726;DHT22;6427;49.754;6.106;2023-08-17T00:33:02;18.90;99.90
12726;DHT22;6427;49.754;6.106;2023-08-17T00:35:29;18.80;99.90
12726;DHT22;6427;49.754;6.106;2023-08-17T00:37:58;18.80;99.90
12726;DHT22;6427;49.754;6.106;2023-08-17T00:40:25;18.80;99.90
12726;DHT22;6427;49.754;6.106;2023-08-17T00:42:53;18.80;99.90
12726;DHT22;6427;49.754;6.106;2023-08-17T00:45:21;18.80;99.90
12726;DHT22;6427;49.754;6.106;2023-08-17T00:47:48;18.80;99.90
12726;DHT22;6427;49.754;6.106;2023-08-17T00:50:16;18.80;99.90
12726;DHT22;6427;49.754;6.106;2023-08-17T00:52:43;18.90;99.90
12726;DHT22;6427;49.754;6.106;2023-08-17T00:55:11;19.10;99.90
12726;DHT22;6427;49.754;6.106;2023-08-17T00:57:40;19.10;99.90
12726;DHT22;6427;49.754;6.106;2023-08-17T01:00:08;19.10;99.90
12726;DHT22;6427;49.754;6.106;2023-08-17T01:02:34;19.00;99.90
12726;DHT22;6427;49.754;6.106;2023-08-17T01:05:02;19.00;99.90
12726;DHT22;6427;49.754;6.106;2023-08-17T01:07:30;18.90;99.90
12726;DHT22;6427;49.754;6.106;2023-08-17T01:09:57;18.90;99.90
12726;DHT22;6427;49.754;6.106;2023-08-17T01:12:31;19.10;99.90
12726;DHT22;6427;49.754;6.106;2023-08-17T01:15:04;19.10;99.90
12726;DHT22;6427;49.754;6.106;2023-08-17T01:17:33;19.30;99.90
12726;DHT22;6427;49.754;6.106;2023-08-17T01:19:56;19.40;99.90
12726;DHT22;6427;49.754;6.106;2023-08-17T01:22:24;19.40;99.90
12726;DHT22;6427;49.754;6.106;2023-08-17T01:24:54;19.30;99.90
12726;DHT22;6427;49.754;6.106;2023-08-17T01:27:19;19.20;99.90
12726;DHT22;6427;49.754;6.106;2023-08-17T01:29:46;19.20;99.90
12726;DHT22;6427;49.754;6.106;2023-08-17T01:34:58;19.10;99.90
12726;DHT22;6427;49.754;6.106;2023-08-17T01:37:21;19.10;99.90
12726;DHT22;6427;49.754;6.106;2023-08-17T01:39:49;19.10;99.90
12726;DHT22;6427;49.754;6.106;2023-08-17T01:42:16;19.10;99.90
12726;DHT22;6427;49.754;6.106;2023-08-17T01:44:44;19.10;99.90
12726;DHT22;6427;49.754;6.106;2023-08-17T01:47:12;19.10;99.90
12726;DHT22;6427;49.754;6.106;2023-08-17T01:49:39;19.30;99.90
12726;DHT22;6427;49.754;6.106;2023-08-17T01:52:07;19.50;99.90
12726;DHT22;6427;49.754;6.106;2023-08-17T01:54:35;19.30;99.90
12726;DHT22;6427;49.754;6.106;2023-08-17T01:57:04;19.30;99.90
12726;DHT22;6427;49.754;6.106;2023-08-17T01:59:31;19.30;99.90
12726;DHT22;6427;49.754;6.106;2023-08-17T02:01:59;19.30;99.90
12726;DHT22;6427;49.754;6.106;2023-08-17T02:04:27;19.20;99.90
12726;DHT22;6427;49.754;6.106;2023-08-17T02:06:55;19.20;99.90
12726;DHT22;6427;49.754;6.106;2023-08-17T02:09:22;19.20;99.90
12726;DHT22;6427;49.754;6.106;2023-08-17T02:11:50;19.20;99.90
12726;DHT22;6427;49.754;6.106;2023-08-17T02:14:17;19.20;99.90
12726;DHT22;6427;49.754;6.106;2023-08-17T02:16:45;19.20;99.90
12726;DHT22;6427;49.754;6.106;2023-08-17T02:19:13;19.10;99.90
12726;DHT22;6427;49.754;6.106;2023-08-17T02:21:40;19.10;99.90
12726;DHT22;6427;49.754;6.106;2023-08-17T02:24:08;19.10;99.90
12726;DHT22;6427;49.754;6.106;2023-08-17T02:26:35;19.10;99.90
12726;DHT22;6427;49.754;6.106;2023-08-17T02:29:04;19.10;99.90
12726;DHT22;6427;49.754;6.106;2023-08-17T02:31:31;19.00;99.90
12726;DHT22;6427;49.754;6.106;2023-08-17T02:33:59;19.10;99.90
12726;DHT22;6427;49.754;6.106;2023-08-17T02:36:31;19.00;99.90
12726;DHT22;6427;49.754;6.106;2023-08-17T02:38:55;19.00;99.90
12726;DHT22;6427;49.754;6.106;2023-08-17T02:41:23;19.00;99.90
12726;DHT22;6427;49.754;6.106;2023-08-17T02:43:50;19.00;99.90
12726;DHT22;6427;49.754;6.106;2023-08-17T02:46:18;19.00;99.90
12726;DHT22;6427;49.754;6.106;2023-08-17T02:48:45;19.20;99.90
12726;DHT22;6427;49.754;6.106;2023-08-17T02:51:13;19.20;99.90
12726;DHT22;6427;49.754;6.106;2023-08-17T02:53:41;19.10;99.90
12726;DHT22;6427;49.754;6.106;2023-08-17T02:56:08;19.10;99.90
12726;DHT22;6427;49.754;6.106;2023-08-17T02:58:36;19.10;99.90
12726;DHT22;6427;49.754;6.106;2023-08-17T03:01:03;19.10;99.90
12726;DHT22;6427;49.754;6.106;2023-08-17T03:03:31;19.10;99.90
12726;DHT22;6427;49.754;6.106;2023-08-17T03:05:59;19.00;99.90
12726;DHT22;6427;49.754;6.106;2023-08-17T03:08:26;19.10;99.90
12726;DHT22;6427;49.754;6.106;2023-08-17T03:10:54;19.00;99.90
12726;DHT22;6427;49.754;6.106;2023-08-17T03:13:22;19.00;99.90
12726;DHT22;6427;49.754;6.106;2023-08-17T03:15:50;19.00;99.90
12726;DHT22;6427;49.754;6.106;2023-08-17T03:18:17;19.00;99.90
12726;DHT22;6427;49.754;6.106;2023-08-17T03:20:45;19.00;99.90
12726;DHT22;6427;49.754;6.106;2023-08-17T03:23:13;19.00;99.90
12726;DHT22;6427;49.754;6.106;2023-08-17T03:25:41;19.00;99.90
12726;DHT22;6427;49.754;6.106;2023-08-17T03:28:09;19.00;99.90
12726;DHT22;6427;49.754;6.106;2023-08-17T03:30:36;19.00;99.90
12726;DHT22;6427;49.754;6.106;2023-08-17T03:33:04;19.00;99.90
12726;DHT22;6427;49.754;6.106;2023-08-17T03:35:31;19.00;99.90
12726;DHT22;6427;49.754;6.106;2023-08-17T03:38:00;19.10;99.90
12726;DHT22;6427;49.754;6.106;2023-08-17T03:40:27;19.10;99.90
12726;DHT22;6427;49.754;6.106;2023-08-17T03:42:55;19.10;99.90
12726;DHT22;6427;49.754;6.106;2023-08-17T03:45:23;19.00;99.90
12726;DHT22;6427;49.754;6.106;2023-08-17T03:47:52;19.00;99.90
12726;DHT22;6427;49.754;6.106;2023-08-17T03:50:19;18.90;99.90
12726;DHT22;6427;49.754;6.106;2023-08-17T03:52:47;18.90;99.90
12726;DHT22;6427;49.754;6.106;2023-08-17T03:55:15;18.90;99.90
12726;DHT22;6427;49.754;6.106;2023-08-17T03:57:42;18.90;99.90
12726;DHT22;6427;49.754;6.106;2023-08-17T04:00:10;18.90;99.90
12726;DHT22;6427;49.754;6.106;2023-08-17T04:02:38;18.90;99.90
12726;DHT22;6427;49.754;6.106;2023-08-17T04:05:06;18.90;99.90
12726;DHT22;6427;49.754;6.106;2023-08-17T04:07:33;18.90;99.90
12726;DHT22;6427;49.754;6.106;2023-08-17T04:10:01;18.90;99.90
12726;DHT22;6427;49.754;6.106;2023-08-17T04:12:29;19.10;99.90
12726;DHT22;6427;49.754;6.106;2023-08-17T04:14:56;19.10;99.90
12726;DHT22;6427;49.754;6.106;2023-08-17T04:17:24;19.10;99.90
12726;DHT22;6427;49.754;6.106;2023-08-17T04:19:52;19.00;99.90
12726;DHT22;6427;49.754;6.106;2023-08-17T04:22:19;19.00;99.90
12726;DHT22;6427;49.754;6.106;2023-08-17T04:24:47;19.00;99.90
12726;DHT22;6427;49.754;6.106;2023-08-17T04:27:14;19.00;99.90
12726;DHT22;6427;49.754;6.106;2023-08-17T04:29:42;19.00;99.90
12726;DHT22;6427;49.754;6.106;2023-08-17T04:32:13;18.90;99.90
12726;DHT22;6427;49.754;6.106;2023-08-17T04:34:37;19.10;99.90
12726;DHT22;6427;49.754;6.106;2023-08-17T04:37:05;19.10;99.90
12726;DHT22;6427;49.754;6.106;2023-08-17T04:39:33;19.00;99.90
12726;DHT22;6427;49.754;6.106;2023-08-17T04:42:02;19.00;99.90
12726;DHT22;6427;49.754;6.106;2023-08-17T04:44:28;19.20;99.90
12726;DHT22;6427;49.754;6.106;2023-08-17T04:46:57;19.10;99.90
12726;DHT22;6427;49.754;6.106;2023-08-17T04:49:24;19.10;99.90
12726;DHT22;6427;49.754;6.106;2023-08-17T04:51:52;19.30;99.90
12726;DHT22;6427;49.754;6.106;2023-08-17T04:54:20;19.40;99.90
12726;DHT22;6427;49.754;6.106;2023-08-17T04:56:48;19.40;99.90
12726;DHT22;6427;49.754;6.106;2023-08-17T04:59:16;19.30;99.90
12726;DHT22;6427;49.754;6.106;2023-08-17T05:01:43;19.30;99.90
12726;DHT22;6427;49.754;6.106;2023-08-17T05:04:12;19.20;99.90
12726;DHT22;6427;49.754;6.106;2023-08-17T05:06:39;19.20;99.90
12726;DHT22;6427;49.754;6.106;2023-08-17T05:09:07;19.10;99.90
12726;DHT22;6427;49.754;6.106;2023-08-17T05:11:34;19.10;99.90
12726;DHT22;6427;49.754;6.106;2023-08-17T05:14:02;19.10;99.90
12726;DHT22;6427;49.754;6.106;2023-08-17T05:16:30;19.10;99.90
12726;DHT22;6427;49.754;6.106;2023-08-17T05:18:57;19.10;99.90
12726;DHT22;6427;49.754;6.106;2023-08-17T05:21:25;19.10;99.90
12726;DHT22;6427;49.754;6.106;2023-08-17T05:23:52;19.10;99.90
12726;DHT22;6427;49.754;6.106;2023-08-17T05:26:21;19.30;99.90
12726;DHT22;6427;49.754;6.106;2023-08-17T05:28:48;19.30;99.90
12726;DHT22;6427;49.754;6.106;2023-08-17T05:31:16;19.30;99.90
12726;DHT22;6427;49.754;6.106;2023-08-17T05:33:44;19.30;99.90
12726;DHT22;6427;49.754;6.106;2023-08-17T05:36:12;19.30;99.90
12726;DHT22;6427;49.754;6.106;2023-08-17T05:38:40;19.30;99.90
12726;DHT22;6427;49.754;6.106;2023-08-17T05:41:07;19.30;99.90
12726;DHT22;6427;49.754;6.106;2023-08-17T05:43:35;19.30;99.90
12726;DHT22;6427;49.754;6.106;2023-08-17T05:46:02;19.30;99.90
12726;DHT22;6427;49.754;6.106;2023-08-17T05:48:30;19.30;99.90
12726;DHT22;6427;49.754;6.106;2023-08-17T05:50:58;19.30;99.90
12726;DHT22;6427;49.754;6.106;2023-08-17T05:53:25;19.30;99.90
12726;DHT22;6427;49.754;6.106;2023-08-17T05:55:53;19.40;99.90
12726;DHT22;6427;49.754;6.106;2023-08-17T05:58:21;19.40;99.90
12726;DHT22;6427;49.754;6.106;2023-08-17T06:00:49;19.40;99.90
12726;DHT22;6427;49.754;6.106;2023-08-17T06:03:17;19.40;99.90
12726;DHT22;6427;49.754;6.106;2023-08-17T06:05:44;19.50;99.90
12726;DHT22;6427;49.754;6.106;2023-08-17T06:08:12;19.40;99.90
12726;DHT22;6427;49.754;6.106;2023-08-17T06:10:39;19.40;99.90
12726;DHT22;6427;49.754;6.106;2023-08-17T06:13:08;19.40;99.90
12726;DHT22;6427;49.754;6.106;2023-08-17T06:15:35;19.40;99.90
12726;DHT22;6427;49.754;6.106;2023-08-17T06:18:03;19.40;99.90
12726;DHT22;6427;49.754;6.106;2023-08-17T06:20:30;19.50;99.90
12726;DHT22;6427;49.754;6.106;2023-08-17T06:22:58;19.50;99.90
12726;DHT22;6427;49.754;6.106;2023-08-17T06:25:26;19.70;99.90
12726;DHT22;6427;49.754;6.106;2023-08-17T06:27:53;19.70;99.90
12726;DHT22;6427;49.754;6.106;2023-08-17T06:30:22;19.70;99.90
12726;DHT22;6427;49.754;6.106;2023-08-17T06:32:52;19.70;99.90
12726;DHT22;6427;49.754;6.106;2023-08-17T06:35:20;19.80;99.90
12726;DHT22;6427;49.754;6.106;2023-08-17T06:37:47;19.80;99.90
12726;DHT22;6427;49.754;6.106;2023-08-17T06:40:15;19.90;99.90
12726;DHT22;6427;49.754;6.106;2023-08-17T06:42:43;19.90;99.90
12726;DHT22;6427;49.754;6.106;2023-08-17T06:45:10;20.00;99.90
12726;DHT22;6427;49.754;6.106;2023-08-17T06:47:38;20.10;99.90
12726;DHT22;6427;49.754;6.106;2023-08-17T06:50:05;20.10;99.90
12726;DHT22;6427;49.754;6.106;2023-08-17T06:52:33;20.20;99.90
12726;DHT22;6427;49.754;6.106;2023-08-17T06:55:02;20.50;99.90
12726;DHT22;6427;49.754;6.106;2023-08-17T06:57:29;20.50;99.90
12726;DHT22;6427;49.754;6.106;2023-08-17T06:59:57;20.50;99.90
12726;DHT22;6427;49.754;6.106;2023-08-17T07:02:24;20.50;99.90
12726;DHT22;6427;49.754;6.106;2023-08-17T07:04:53;20.50;99.90
12726;DHT22;6427;49.754;6.106;2023-08-17T07:07:20;20.50;99.90
12726;DHT22;6427;49.754;6.106;2023-08-17T07:09:48;20.50;99.90
12726;DHT22;6427;49.754;6.106;2023-08-17T07:12:16;20.90;99.90
12726;DHT22;6427;49.754;6.106;2023-08-17T07:14:44;20.90;99.90
12726;DHT22;6427;49.754;6.106;2023-08-17T07:17:12;20.90;99.90
12726;DHT22;6427;49.754;6.106;2023-08-17T07:19:40;21.10;99.90
12726;DHT22;6427;49.754;6.106;2023-08-17T07:22:08;21.10;99.90
12726;DHT22;6427;49.754;6.106;2023-08-17T07:24:35;21.10;99.90
12726;DHT22;6427;49.754;6.106;2023-08-17T07:27:03;21.10;99.90
12726;DHT22;6427;49.754;6.106;2023-08-17T07:29:30;21.30;99.90
12726;DHT22;6427;49.754;6.106;2023-08-17T07:31:59;21.30;99.90
12726;DHT22;6427;49.754;6.106;2023-08-17T07:34:26;21.20;99.90
12726;DHT22;6427;49.754;6.106;2023-08-17T07:36:54;21.20;99.90
12726;DHT22;6427;49.754;6.106;2023-08-17T07:39:21;21.40;99.90
12726;DHT22;6427;49.754;6.106;2023-08-17T07:41:50;21.40;99.90
12726;DHT22;6427;49.754;6.106;2023-08-17T07:44:17;21.40;99.90
12726;DHT22;6427;49.754;6.106;2023-08-17T07:46:45;21.40;99.90
12726;DHT22;6427;49.754;6.106;2023-08-17T07:49:13;21.40;99.90
12726;DHT22;6427;49.754;6.106;2023-08-17T07:51:40;21.40;99.90
12726;DHT22;6427;49.754;6.106;2023-08-17T07:54:08;21.60;99.90
12726;DHT22;6427;49.754;6.106;2023-08-17T07:56:35;21.60;99.90
12726;DHT22;6427;49.754;6.106;2023-08-17T07:59:03;21.50;99.90
12726;DHT22;6427;49.754;6.106;2023-08-17T08:01:31;21.50;99.90
12726;DHT22;6427;49.754;6.106;2023-08-17T08:03:58;21.50;99.90
12726;DHT22;6427;49.754;6.106;2023-08-17T08:06:26;21.50;99.90
12726;DHT22;6427;49.754;6.106;2023-08-17T08:08:54;21.50;99.90
12726;DHT22;6427;49.754;6.106;2023-08-17T08:11:24;21.50;99.90
12726;DHT22;6427;49.754;6.106;2023-08-17T08:13:52;21.50;99.90
12726;DHT22;6427;49.754;6.106;2023-08-17T08:16:19;21.50;99.90
12726;DHT22;6427;49.754;6.106;2023-08-17T08:18:47;21.60;99.90
12726;DHT22;6427;49.754;6.106;2023-08-17T08:21:15;21.80;99.90
12726;DHT22;6427;49.754;6.106;2023-08-17T08:23:42;21.80;99.90
12726;DHT22;6427;49.754;6.106;2023-08-17T08:26:11;22.00;99.90
12726;DHT22;6427;49.754;6.106;2023-08-17T08:28:39;22.00;99.90
12726;DHT22;6427;49.754;6.106;2023-08-17T08:31:06;22.00;99.90
12726;DHT22;6427;49.754;6.106;2023-08-17T08:33:33;22.00;99.90
12726;DHT22;6427;49.754;6.106;2023-08-17T08:36:01;22.00;99.90
12726;DHT22;6427;49.754;6.106;2023-08-17T08:38:29;22.30;99.90
12726;DHT22;6427;49.754;6.106;2023-08-17T08:40:57;22.20;99.90
12726;DHT22;6427;49.754;6.106;2023-08-17T08:43:25;22.20;99.90
12726;DHT22;6427;49.754;6.106;2023-08-17T08:45:52;22.20;99.90
12726;DHT22;6427;49.754;6.106;2023-08-17T08:48:20;22.20;99.90
12726;DHT22;6427;49.754;6.106;2023-08-17T08:50:47;22.20;99.90
12726;DHT22;6427;49.754;6.106;2023-08-17T08:53:15;22.20;99.90
12726;DHT22;6427;49.754;6.106;2023-08-17T08:55:54;22.20;99.90
12726;DHT22;6427;49.754;6.106;2023-08-17T08:58:16;22.30;99.90
12726;DHT22;6427;49.754;6.106;2023-08-17T09:00:45;22.30;99.90
12726;DHT22;6427;49.754;6.106;2023-08-17T09:03:11;22.40;99.90
12726;DHT22;6427;49.754;6.106;2023-08-17T09:05:39;22.50;99.90
12726;DHT22;6427;49.754;6.106;2023-08-17T09:08:08;22.60;99.90
12726;DHT22;6427;49.754;6.106;2023-08-17T09:10:34;22.70;99.90
12726;DHT22;6427;49.754;6.106;2023-08-17T09:13:01;22.70;99.90
12726;DHT22;6427;49.754;6.106;2023-08-17T09:15:30;23.20;99.90
12726;DHT22;6427;49.754;6.106;2023-08-17T09:17:57;23.20;99.90
12726;DHT22;6427;49.754;6.106;2023-08-17T09:20:41;23.20;99.90
12726;DHT22;6427;49.754;6.106;2023-08-17T09:23:15;23.20;99.90
12726;DHT22;6427;49.754;6.106;2023-08-17T09:25:38;23.20;99.90
12726;DHT22;6427;49.754;6.106;2023-08-17T09:28:11;23.30;99.90
12726;DHT22;6427;49.754;6.106;2023-08-17T09:30:57;23.30;99.90
12726;DHT22;6427;49.754;6.106;2023-08-17T09:33:26;23.30;99.90
12726;DHT22;6427;49.754;6.106;2023-08-17T09:35:53;23.30;99.90
12726;DHT22;6427;49.754;6.106;2023-08-17T09:38:20;23.20;99.90
12726;DHT22;6427;49.754;6.106;2023-08-17T09:40:48;23.20;99.90
12726;DHT22;6427;49.754;6.106;2023-08-17T09:43:16;23.30;99.90
12726;DHT22;6427;49.754;6.106;2023-08-17T09:45:44;23.20;99.90
12726;DHT22;6427;49.754;6.106;2023-08-17T09:48:17;23.20;99.90
12726;DHT22;6427;49.754;6.106;2023-08-17T09:50:45;23.30;99.90
12726;DHT22;6427;49.754;6.106;2023-08-17T09:53:12;23.30;99.90
12726;DHT22;6427;49.754;6.106;2023-08-17T09:55:40;23.30;99.90
12726;DHT22;6427;49.754;6.106;2023-08-17T09:58:07;23.60;99.90
12726;DHT22;6427;49.754;6.106;2023-08-17T10:00:36;23.50;99.90
12726;DHT22;6427;49.754;6.106;2023-08-17T10:03:05;23.50;99.90
12726;DHT22;6427;49.754;6.106;2023-08-17T10:05:35;23.50;99.90
12726;DHT22;6427;49.754;6.106;2023-08-17T10:08:00;23.50;99.90
12726;DHT22;6427;49.754;6.106;2023-08-17T10:10:29;23.40;99.90
12726;DHT22;6427;49.754;6.106;2023-08-17T10:13:08;23.40;99.90
12726;DHT22;6427;49.754;6.106;2023-08-17T10:15:45;23.40;99.90
12726;DHT22;6427;49.754;6.106;2023-08-17T10:18:29;23.30;99.90
12726;DHT22;6427;49.754;6.106;2023-08-17T10:20:58;23.40;99.90
12726;DHT22;6427;49.754;6.106;2023-08-17T10:23:22;23.40;99.90
12726;DHT22;6427;49.754;6.106;2023-08-17T10:25:50;23.50;99.90
12726;DHT22;6427;49.754;6.106;2023-08-17T10:28:17;23.60;99.90
12726;DHT22;6427;49.754;6.106;2023-08-17T10:30:46;24.10;99.90
12726;DHT22;6427;49.754;6.106;2023-08-17T10:33:14;24.20;99.90
12726;DHT22;6427;49.754;6.106;2023-08-17T10:35:42;24.20;99.90
12726;DHT22;6427;49.754;6.106;2023-08-17T10:38:10;24.60;99.90
12726;DHT22;6427;49.754;6.106;2023-08-17T10:40:39;24.50;99.90
12726;DHT22;6427;49.754;6.106;2023-08-17T10:43:05;24.60;99.90
12726;DHT22;6427;49.754;6.106;2023-08-17T10:45:35;24.60;99.90
12726;DHT22;6427;49.754;6.106;2023-08-17T10:50:36;24.70;99.90
12726;DHT22;6427;49.754;6.106;2023-08-17T10:53:04;24.70;99.90
12726;DHT22;6427;49.754;6.106;2023-08-17T10:55:41;24.70;99.90
12726;DHT22;6427;49.754;6.106;2023-08-17T10:58:08;24.70;99.90
12726;DHT22;6427;49.754;6.106;2023-08-17T11:00:36;24.90;99.90
12726;DHT22;6427;49.754;6.106;2023-08-17T11:03:04;24.90;99.90
12726;DHT22;6427;49.754;6.106;2023-08-17T11:05:46;24.90;99.90
12726;DHT22;6427;49.754;6.106;2023-08-17T11:08:31;24.90;99.90
12726;DHT22;6427;49.754;6.106;2023-08-17T11:11:02;24.90;99.90
12726;DHT22;6427;49.754;6.106;2023-08-17T11:13:36;24.90;99.90
12726;DHT22;6427;49.754;6.106;2023-08-17T11:16:03;25.10;99.90
12726;DHT22;6427;49.754;6.106;2023-08-17T11:18:31;25.20;99.90
12726;DHT22;6427;49.754;6.106;2023-08-17T11:20:59;25.20;99.90
12726;DHT22;6427;49.754;6.106;2023-08-17T11:23:28;25.20;99.90
12726;DHT22;6427;49.754;6.106;2023-08-17T11:25:54;25.20;99.90
12726;DHT22;6427;49.754;6.106;2023-08-17T11:28:23;25.40;99.90
12726;DHT22;6427;49.754;6.106;2023-08-17T11:31:06;25.40;99.90
12726;DHT22;6427;49.754;6.106;2023-08-17T11:33:33;25.40;99.90
12726;DHT22;6427;49.754;6.106;2023-08-17T11:36:03;25.40;99.90
12726;DHT22;6427;49.754;6.106;2023-08-17T11:38:33;25.40;99.90
12726;DHT22;6427;49.754;6.106;2023-08-17T11:41:01;25.30;99.90
12726;DHT22;6427;49.754;6.106;2023-08-17T11:43:29;25.30;99.90
12726;DHT22;6427;49.754;6.106;2023-08-17T11:45:56;25.30;99.90
12726;DHT22;6427;49.754;6.106;2023-08-17T11:48:24;25.30;99.90
12726;DHT22;6427;49.754;6.106;2023-08-17T11:50:51;25.40;99.90
12726;DHT22;6427;49.754;6.106;2023-08-17T11:53:19;25.40;99.90
12726;DHT22;6427;49.754;6.106;2023-08-17T11:55:48;25.60;99.90
12726;DHT22;6427;49.754;6.106;2023-08-17T11:58:15;25.50;99.90
12726;DHT22;6427;49.754;6.106;2023-08-17T12:00:44;25.70;99.90
12726;DHT22;6427;49.754;6.106;2023-08-17T12:03:13;25.70;99.90
12726;DHT22;6427;49.754;6.106;2023-08-17T12:05:41;25.80;99.90
12726;DHT22;6427;49.754;6.106;2023-08-17T12:08:08;25.90;99.90
12726;DHT22;6427;49.754;6.106;2023-08-17T12:10:36;26.00;99.90
12726;DHT22;6427;49.754;6.106;2023-08-17T12:13:04;26.30;99.90
12726;DHT22;6427;49.754;6.106;2023-08-17T12:15:31;26.40;99.90
12726;DHT22;6427;49.754;6.106;2023-08-17T12:18:00;26.50;99.90
12726;DHT22;6427;49.754;6.106;2023-08-17T12:20:26;26.70;99.90
12726;DHT22;6427;49.754;6.106;2023-08-17T12:22:54;26.80;99.90
12726;DHT22;6427;49.754;6.106;2023-08-17T12:25:22;27.00;99.90
12726;DHT22;6427;49.754;6.106;2023-08-17T12:27:49;27.10;99.90
12726;DHT22;6427;49.754;6.106;2023-08-17T12:30:27;27.10;99.90
12726;DHT22;6427;49.754;6.106;2023-08-17T12:32:51;27.10;99.90
12726;DHT22;6427;49.754;6.106;2023-08-17T12:35:20;27.10;99.90
12726;DHT22;6427;49.754;6.106;2023-08-17T12:37:47;27.10;99.90
12726;DHT22;6427;49.754;6.106;2023-08-17T12:40:15;27.10;99.90
12726;DHT22;6427;49.754;6.106;2023-08-17T12:42:43;27.30;99.90
12726;DHT22;6427;49.754;6.106;2023-08-17T12:45:11;27.40;99.90
12726;DHT22;6427;49.754;6.106;2023-08-17T12:47:39;27.40;99.90
12726;DHT22;6427;49.754;6.106;2023-08-17T12:50:07;27.60;99.90
12726;DHT22;6427;49.754;6.106;2023-08-17T12:52:35;27.60;99.90
12726;DHT22;6427;49.754;6.106;2023-08-17T12:55:02;27.60;99.90
12726;DHT22;6427;49.754;6.106;2023-08-17T12:57:30;27.60;99.90
12726;DHT22;6427;49.754;6.106;2023-08-17T12:59:57;27.80;99.90
12726;DHT22;6427;49.754;6.106;2023-08-17T13:02:25;27.80;99.90
12726;DHT22;6427;49.754;6.106;2023-08-17T13:04:53;28.00;99.90
12726;DHT22;6427;49.754;6.106;2023-08-17T13:07:21;27.90;99.90
12726;DHT22;6427;49.754;6.106;2023-08-17T13:09:49;28.00;99.90
12726;DHT22;6427;49.754;6.106;2023-08-17T13:12:16;28.00;99.90
12726;DHT22;6427;49.754;6.106;2023-08-17T13:14:44;27.90;99.90
12726;DHT22;6427;49.754;6.106;2023-08-17T13:17:11;27.90;99.90
12726;DHT22;6427;49.754;6.106;2023-08-17T13:19:39;27.80;99.90
12726;DHT22;6427;49.754;6.106;2023-08-17T13:22:08;27.80;99.90
12726;DHT22;6427;49.754;6.106;2023-08-17T13:24:34;27.90;99.90
12726;DHT22;6427;49.754;6.106;2023-08-17T13:27:02;27.90;99.90
12726;DHT22;6427;49.754;6.106;2023-08-17T13:29:29;27.90;99.90
12726;DHT22;6427;49.754;6.106;2023-08-17T13:31:57;28.00;99.90
12726;DHT22;6427;49.754;6.106;2023-08-17T13:34:25;27.90;98.40
12726;DHT22;6427;49.754;6.106;2023-08-17T13:36:53;27.90;98.10
12726;DHT22;6427;49.754;6.106;2023-08-17T13:39:21;27.90;98.30
12726;DHT22;6427;49.754;6.106;2023-08-17T13:41:49;27.80;98.70
12726;DHT22;6427;49.754;6.106;2023-08-17T13:44:16;27.80;99.20
12726;DHT22;6427;49.754;6.106;2023-08-17T13:46:44;27.80;99.80
12726;DHT22;6427;49.754;6.106;2023-08-17T13:49:11;27.90;98.90
12726;DHT22;6427;49.754;6.106;2023-08-17T13:51:39;27.80;99.00
12726;DHT22;6427;49.754;6.106;2023-08-17T13:54:07;27.70;99.20
12726;DHT22;6427;49.754;6.106;2023-08-17T13:56:34;27.80;99.40
12726;DHT22;6427;49.754;6.106;2023-08-17T13:59:02;27.80;99.20
12726;DHT22;6427;49.754;6.106;2023-08-17T14:01:29;27.70;99.00
12726;DHT22;6427;49.754;6.106;2023-08-17T14:03:57;27.70;99.10
12726;DHT22;6427;49.754;6.106;2023-08-17T14:06:25;27.60;99.10
12726;DHT22;6427;49.754;6.106;2023-08-17T14:08:52;27.80;97.40
12726;DHT22;6427;49.754;6.106;2023-08-17T14:11:20;27.90;96.90
12726;DHT22;6427;49.754;6.106;2023-08-17T14:13:48;28.10;94.50
12726;DHT22;6427;49.754;6.106;2023-08-17T14:16:17;28.10;94.50
12726;DHT22;6427;49.754;6.106;2023-08-17T14:18:44;28.10;94.50
12726;DHT22;6427;49.754;6.106;2023-08-17T14:21:12;28.50;94.30
12726;DHT22;6427;49.754;6.106;2023-08-17T14:23:40;28.40;94.00
12726;DHT22;6427;49.754;6.106;2023-08-17T14:26:08;28.50;93.80
12726;DHT22;6427;49.754;6.106;2023-08-17T14:28:35;28.50;93.80
12726;DHT22;6427;49.754;6.106;2023-08-17T14:31:03;28.60;94.50
12726;DHT22;6427;49.754;6.106;2023-08-17T14:33:30;28.80;95.10
12726;DHT22;6427;49.754;6.106;2023-08-17T14:35:58;28.80;94.30
12726;DHT22;6427;49.754;6.106;2023-08-17T14:38:26;28.80;94.40
12726;DHT22;6427;49.754;6.106;2023-08-17T14:40:53;28.80;94.40
12726;DHT22;6427;49.754;6.106;2023-08-17T14:43:22;28.90;93.90
12726;DHT22;6427;49.754;6.106;2023-08-17T14:45:50;28.90;93.60
12726;DHT22;6427;49.754;6.106;2023-08-17T14:48:18;28.90;93.50
12726;DHT22;6427;49.754;6.106;2023-08-17T14:50:46;29.10;92.90
12726;DHT22;6427;49.754;6.106;2023-08-17T14:53:14;29.10;92.90
12726;DHT22;6427;49.754;6.106;2023-08-17T14:55:41;29.10;93.20
12726;DHT22;6427;49.754;6.106;2023-08-17T14:58:09;29.20;93.30
12726;DHT22;6427;49.754;6.106;2023-08-17T15:00:36;29.30;92.90
12726;DHT22;6427;49.754;6.106;2023-08-17T15:03:04;29.40;92.10
12726;DHT22;6427;49.754;6.106;2023-08-17T15:05:32;29.50;91.90
12726;DHT22;6427;49.754;6.106;2023-08-17T15:08:00;29.60;91.80
12726;DHT22;6427;49.754;6.106;2023-08-17T15:10:28;29.60;91.70
12726;DHT22;6427;49.754;6.106;2023-08-17T15:12:56;29.70;91.30
12726;DHT22;6427;49.754;6.106;2023-08-17T15:15:24;29.70;91.30
12726;DHT22;6427;49.754;6.106;2023-08-17T15:17:51;29.70;91.10
12726;DHT22;6427;49.754;6.106;2023-08-17T15:20:19;29.70;91.40
12726;DHT22;6427;49.754;6.106;2023-08-17T15:22:46;29.70;91.50
12726;DHT22;6427;49.754;6.106;2023-08-17T15:25:14;29.70;91.80
12726;DHT22;6427;49.754;6.106;2023-08-17T15:27:42;29.80;91.60
12726;DHT22;6427;49.754;6.106;2023-08-17T15:30:09;29.80;92.00
12726;DHT22;6427;49.754;6.106;2023-08-17T15:32:38;30.00;91.50
12726;DHT22;6427;49.754;6.106;2023-08-17T15:35:05;30.10;91.50
12726;DHT22;6427;49.754;6.106;2023-08-17T15:37:33;30.10;91.10
12726;DHT22;6427;49.754;6.106;2023-08-17T15:40:01;30.20;90.60
12726;DHT22;6427;49.754;6.106;2023-08-17T15:42:28;30.20;90.70
12726;DHT22;6427;49.754;6.106;2023-08-17T15:44:56;30.30;90.80
12726;DHT22;6427;49.754;6.106;2023-08-17T15:47:24;30.30;90.20
12726;DHT22;6427;49.754;6.106;2023-08-17T15:49:52;30.30;90.20
12726;DHT22;6427;49.754;6.106;2023-08-17T15:52:20;30.10;90.50
12726;DHT22;6427;49.754;6.106;2023-08-17T15:54:48;30.10;90.50